Zim Luanda — 9HA2029 — position and weather

sailwx.info

Track history (hours):
 
Tides and Currents Weather Stations Pressure Air Temp Water Temp Dewpoint Dewpoint Depression Visibility Wind Speed Wind Dir Waves Ship Positions

Zim Luanda

Last reported at 2014-Nov-20 21:31 UTC. Time now 2014-Nov-21 12:23 UTC.
Position N 39°13' W 024°22'.

Length 260 m; draft 11.4 m.

Type: Ship (hazmat cat A). MMSI: 249830000.

Date/timePositionNaut miles runAvg speedWind from/ knotsBaromVisibWave heightAir tempDewpointWater temp
2014-Nov-20 21:31N 39°13' W 024°22'13215.6
2014-Nov-20 13:04N 39°32' W 027°10'816.0
2014-Nov-20 12:32N 39°34' W 027°21'1615.6
2014-Nov-20 11:30N 39°36' W 027°42'1515.8
2014-Nov-20 10:33N 39°38' W 028°01'1616.1
2014-Nov-20 09:33N 39°40' W 028°22'1615.7
2014-Nov-20 08:33N 39°42' W 028°42'1615.5
2014-Nov-20 07:33N 39°44' W 029°02'1515.4
2014-Nov-20 06:33N 39°46' W 029°22'1515.5
2014-Nov-20 05:33N 39°48' W 029°42'1715.9
2014-Nov-20 04:30N 39°50' W 030°04'2115.6
2014-Nov-20 03:09N 39°50' W 030°31'2615.3
2014-Nov-20 01:28N 39°50' W 031°05'1415.2
2014-Nov-20 00:33N 39°50' W 031°23'1615.6
2014-Nov-19 23:33N 39°50' W 031°43'1515.5
2014-Nov-19 22:33N 39°50' W 032°03'  
2014-Nov-13 17:04N 32°04' W 080°57'5 9.0
2014-Nov-13 16:33N 32°05' W 081°02'5 5.3
2014-Nov-13 15:33N 32°07' W 081°08'0 0.0
2014-Nov-13 14:33N 32°07' W 081°08'0 0.0
2014-Nov-13 13:13N 32°07' W 081°08'0 0.0
2014-Nov-13 12:33N 32°07' W 081°08'0 0.0
2014-Nov-13 11:32N 32°07' W 081°08'0 0.0
2014-Nov-13 10:32N 32°07' W 081°08'0 0.0
2014-Nov-13 09:33N 32°07' W 081°08'0 0.0
2014-Nov-13 08:33N 32°07' W 081°08'0 0.0
2014-Nov-13 07:30N 32°07' W 081°08'0 0.0
2014-Nov-13 06:31N 32°07' W 081°08'0 0.0
2014-Nov-13 05:28N 32°07' W 081°08'0 0.0
2014-Nov-13 04:33N 32°07' W 081°08'0 0.0
2014-Nov-13 03:33N 32°07' W 081°08'0 0.0
2014-Nov-13 02:29N 32°07' W 081°08'0 0.0
2014-Nov-13 01:33N 32°07' W 081°08'0 0.0
2014-Nov-13 00:28N 32°07' W 081°08'0 0.3
2014-Nov-12 23:33N 32°07' W 081°08'4 3.8
2014-Nov-12 22:32N 32°05' W 081°04'28913.1
2014-Nov-12 00:30N 34°23' W 076°01'  
Track history (hours):
 
Tides and Currents Weather Stations Pressure Air Temp Water Temp Dewpoint Dewpoint Depression Visibility Wind Speed Wind Dir Waves Ship Positions

Zim Luanda

Last reported at 2014-Nov-20 21:31 UTC. Time now 2014-Nov-21 12:23 UTC.
Position N 39°13' W 024°22'.

Length 260 m; draft 11.4 m.

Type: Ship (hazmat cat A). MMSI: 249830000.

Date/timePositionNaut miles runAvg speedWind from/ knotsBaromVisibWave heightAir tempDewpointWater temp
2014-Nov-20 21:31N 39°13' W 024°22'13215.6
2014-Nov-20 13:04N 39°32' W 027°10'816.0
2014-Nov-20 12:32N 39°34' W 027°21'1615.6
2014-Nov-20 11:30N 39°36' W 027°42'1515.8
2014-Nov-20 10:33N 39°38' W 028°01'1616.1
2014-Nov-20 09:33N 39°40' W 028°22'1615.7
2014-Nov-20 08:33N 39°42' W 028°42'1615.5
2014-Nov-20 07:33N 39°44' W 029°02'1515.4
2014-Nov-20 06:33N 39°46' W 029°22'1515.5
2014-Nov-20 05:33N 39°48' W 029°42'1715.9
2014-Nov-20 04:30N 39°50' W 030°04'2115.6
2014-Nov-20 03:09N 39°50' W 030°31'2615.3
2014-Nov-20 01:28N 39°50' W 031°05'1415.2
2014-Nov-20 00:33N 39°50' W 031°23'1615.6
2014-Nov-19 23:33N 39°50' W 031°43'1515.5
2014-Nov-19 22:33N 39°50' W 032°03'  
2014-Nov-13 17:04N 32°04' W 080°57'5 9.0
2014-Nov-13 16:33N 32°05' W 081°02'5 5.3
2014-Nov-13 15:33N 32°07' W 081°08'0 0.0
2014-Nov-13 14:33N 32°07' W 081°08'0 0.0
2014-Nov-13 13:13N 32°07' W 081°08'0 0.0
2014-Nov-13 12:33N 32°07' W 081°08'0 0.0
2014-Nov-13 11:32N 32°07' W 081°08'0 0.0
2014-Nov-13 10:32N 32°07' W 081°08'0 0.0
2014-Nov-13 09:33N 32°07' W 081°08'0 0.0
2014-Nov-13 08:33N 32°07' W 081°08'0 0.0
2014-Nov-13 07:30N 32°07' W 081°08'0 0.0
2014-Nov-13 06:31N 32°07' W 081°08'0 0.0
2014-Nov-13 05:28N 32°07' W 081°08'0 0.0
2014-Nov-13 04:33N 32°07' W 081°08'0 0.0
2014-Nov-13 03:33N 32°07' W 081°08'0 0.0
2014-Nov-13 02:29N 32°07' W 081°08'0 0.0
2014-Nov-13 01:33N 32°07' W 081°08'0 0.0
2014-Nov-13 00:28N 32°07' W 081°08'0 0.3
2014-Nov-12 23:33N 32°07' W 081°08'4 3.8
2014-Nov-12 22:32N 32°05' W 081°04'28913.1
2014-Nov-12 00:30N 34°23' W 076°01'  

Dump ship's entire track history